Greater Rochester International Airport
KROC : now visible

Airfield :











YOU CAN JOIN US ON...

 
LOGIN :

Register | Disclaimer

   EN    FR    IT 

 









Legend :    VFR   Marginal VFR   IFR   Intensive IFR   Very Intensive IFR
Visi :
Ceiling :
>= 8 km
>= 3000ft
5 to 8 km
1000 to 3000 ft
1500m to 5 km
500 to 1000 ft
800 to 1500m
200 to 500 ft
< 800m
< 200 ft
Symbols :   Thunderstorms  Fog  Heavy snow  Heavy precipitations  Wind > 20 kt







- Airport Elevation : 559 ft
- IATA code : ROC


KROC - Greater Rochester International

CURRENT METAR :
  • 210154Z 17013KT 10SM -FZRA OVC031 00/M04 A2990 RMK AO2 SLP135 P0000 I1000 T00001039

EXPIRED METARs :
  • 210054Z 17012KT 10SM -FZRA BKN033 OVC050 M01/M04 A2998 RMK AO2 FZRAB21 SLP164 P0000 I1001 T10061039
  • 210021Z 17013G19KT 10SM -FZRA OVC033 00/M04 A3001 RMK AO2 FZRAB21 P0000 I1000 T00001044
  • 202354Z 17012KT 10SM OVC034 00/M04 A3003 RMK AO2 SLP180 4/003 60001 I6000 T00001044 10006 21017 56035
  • 202321Z 17014KT 10SM SCT026 OVC036 00/M05 A3005 RMK AO2 T00001050

TAF KROC
Valid from the 21 at 01:00 until the 22 at 00:00 UTC


210036Z 2101/2124 17013G20KT 6SM -FZRA BR OVC025 WS020/19050KT
FM210400 17013G22KT 6SM -RA BR OVC025 WS020/20050KT
FM210700 20012G24KT P6SM OVC015 WS020/23050KT
FM211400 26019G32KT P6SM OVC020
KZOB FIR / North America



MET'MAP, your aeronautical weather chart ! - Copyright ORBIFLY December 2007 - Disclaimer

ORBIFLY MET'MAP TEAM :

Programming & Development : Alexandra Zaïnal
Concept & Development : Baudouin d'Aumeries
Co-Development & Prog : Marc-Olivier Méhu
Technical & hardware support : Manuel Goepfert

Contact : metmap@orbifly.com




SOURCES & CREDITS :

   NOAA       Earth
Advisory